Time;durP1;ratioP1;P1;durP2;ratioP2;P2;SDS_P1;SDS_P2;PMS_P1;PMS_P2;Temp;Humidity;BMP_temperature;BMP_pressure;BME280_temperature;BME280_humidity;BME280_pressure;Samples;Min_cycle;Max_cycle;Signal;HPM_P1;HPM_P2
2022/08/26 00:02:14;;;;;;;15.45;4.53;;;;;;;21.75;83.69;94178.81;5052947;28;20188;-62
2022/08/26 00:04:40;;;;;;;17.35;4.93;;;;;;;21.71;83.24;94182.81;5053327;28;20576;-61
2022/08/26 00:07:05;;;;;;;12.73;4.32;;;;;;;21.72;84.98;94148.19;5051553;28;20247;-62
2022/08/26 00:09:31;;;;;;;16.15;4.43;;;;;;;21.79;84.83;94158.50;5053064;28;20319;-61
2022/08/26 00:11:57;;;;;;;12.63;4.90;;;;;;;21.77;85.46;94142.38;5051797;28;20205;-63
2022/08/26 00:14:22;;;;;;;21.00;5.22;;;;;;;21.68;84.38;94166.91;5052656;28;20224;-62
2022/08/26 00:16:48;;;;;;;19.98;4.70;;;;;;;21.69;83.66;94179.63;5052956;28;20186;-61
2022/08/26 00:19:14;;;;;;;21.10;3.95;;;;;;;21.48;83.88;94168.81;5052758;28;20209;-62
2022/08/26 00:21:39;;;;;;;19.23;3.88;;;;;;;21.45;83.46;94177.78;5052855;28;20185;-63
2022/08/26 00:24:05;;;;;;;16.77;4.13;;;;;;;21.59;83.02;94178.53;5053090;28;20214;-61
2022/08/26 00:26:33;;;;;;;13.35;4.43;;;;;;;21.63;83.61;94170.13;5051503;28;20192;-60
2022/08/26 00:28:59;;;;;;;13.25;3.80;;;;;;;21.69;84.53;94158.94;5052931;28;20202;-62
2022/08/26 00:31:24;;;;;;;18.48;4.28;;;;;;;21.67;84.79;94152.41;5051190;28;20334;-61
2022/08/26 00:33:50;;;;;;;18.20;4.68;;;;;;;21.65;82.55;94185.47;5052167;28;20205;-60
2022/08/26 00:36:15;;;;;;;16.92;3.83;;;;;;;21.61;80.66;94213.53;5051716;28;20643;-61
2022/08/26 00:38:41;;;;;;;20.33;4.53;;;;;;;21.61;79.12;94236.81;5052338;28;20284;-61
2022/08/26 00:41:06;;;;;;;20.90;3.67;;;;;;;21.67;78.40;94248.91;5051181;28;20740;-61
2022/08/26 00:43:35;;;;;;;24.27;4.47;;;;;;;21.65;79.21;94239.78;5052336;28;20297;-61
2022/08/26 00:46:12;;;;;;;23.95;4.45;;;;;;;21.53;81.30;94195.66;5051002;28;20188;-61
2022/08/26 00:48:41;;;;;;;17.77;4.32;;;;;;;21.64;81.47;94184.66;5051488;28;20699;-62
2022/08/26 00:51:20;;;;;;;16.60;3.83;;;;;;;21.67;80.10;94212.69;5052348;28;20220;-62
2022/08/26 00:54:02;;;;;;;22.42;4.15;;;;;;;21.66;80.28;94220.66;5052611;28;20205;-64
2022/08/26 00:56:36;;;;;;;22.10;5.13;;;;;;;21.53;80.80;94205.22;5051155;28;20185;-63
2022/08/26 00:59:07;;;;;;;17.58;3.78;;;;;;;21.38;83.65;94151.19;5049806;28;20223;-63
2022/08/26 01:01:33;;;;;;;17.00;5.32;;;;;;;21.34;83.42;94159.56;5050925;28;20193;-62
2022/08/26 01:03:59;;;;;;;19.17;4.88;;;;;;;21.22;84.56;94138.75;5051934;28;20743;-65
2022/08/26 01:06:26;;;;;;;11.73;4.15;;;;;;;21.16;85.38;94116.31;5052214;28;20205;-62
2022/08/26 01:08:52;;;;;;;14.07;4.22;;;;;;;21.09;86.41;94100.00;5052340;28;20222;-62
2022/08/26 01:11:18;;;;;;;17.58;4.50;;;;;;;21.05;86.52;94093.69;5051970;28;20271;-62
2022/08/26 01:13:46;;;;;;;20.63;4.28;;;;;;;20.95;88.25;94077.78;5052299;28;20233;-63
2022/08/26 01:16:15;;;;;;;18.10;4.63;;;;;;;21.05;87.85;94083.34;5050422;28;20227;-63
2022/08/26 01:18:43;;;;;;;16.85;4.72;;;;;;;20.93;88.96;94070.25;5051859;28;20292;-61
2022/08/26 01:21:20;;;;;;;11.45;4.00;;;;;;;20.99;89.83;94058.28;5050620;28;20173;-62
2022/08/26 01:23:49;;;;;;;14.95;3.83;;;;;;;20.99;89.62;94063.47;5052071;28;20292;-61
2022/08/26 01:26:19;;;;;;;17.33;4.30;;;;;;;21.06;89.86;94069.44;5051616;28;20232;-61
2022/08/26 01:28:44;;;;;;;14.40;4.80;;;;;;;21.14;88.78;94084.69;5051438;28;20206;-60
2022/08/26 01:31:14;;;;;;;24.88;5.00;;;;;;;21.14;88.37;94087.28;5051455;28;20247;-60
2022/08/26 01:33:50;;;;;;;18.27;4.25;;;;;;;21.06;89.11;94073.78;5051506;28;20224;-61
2022/08/26 01:36:16;;;;;;;16.08;3.78;;;;;;;21.07;88.56;94080.56;5051617;28;20200;-61
2022/08/26 01:38:43;;;;;;;14.65;4.13;;;;;;;20.84;88.13;94092.19;5051759;28;20234;-62
2022/08/26 01:41:13;;;;;;;26.20;8.18;;;;;;;20.91;88.27;94092.94;5051579;28;20196;-61
2022/08/26 01:43:43;;;;;;;21.65;7.90;;;;;;;20.93;88.79;94092.72;5050122;28;20217;-60
2022/08/26 01:46:10;;;;;;;13.63;4.07;;;;;;;21.03;88.46;94085.34;5051419;28;20200;-62
2022/08/26 01:48:37;;;;;;;12.13;4.30;;;;;;;21.15;89.02;94088.06;5050034;28;20724;-62
2022/08/26 01:51:06;;;;;;;20.67;4.47;;;;;;;20.94;89.49;94081.41;5051439;28;20238;-60
2022/08/26 01:53:32;;;;;;;20.77;4.40;;;;;;;21.01;88.80;94094.28;5049869;28;20214;-61
2022/08/26 01:56:01;;;;;;;17.92;4.40;;;;;;;21.10;90.19;94078.34;5051437;28;20220;-63
2022/08/26 01:58:50;;;;;;;23.02;4.88;;;;;;;21.03;88.05;94105.25;5051476;28;20190;-62
2022/08/26 02:01:16;;;;;;;15.88;4.55;;;;;;;20.93;88.97;94097.88;5050054;28;20200;-64
2022/08/26 02:04:09;;;;;;;26.38;3.88;;;;;;;21.05;88.78;94085.91;5051362;28;20683;-59
2022/08/26 02:06:37;;;;;;;23.88;4.63;;;;;;;21.16;89.39;94089.66;5049783;28;20190;-61
2022/08/26 02:09:04;;;;;;;20.85;4.18;;;;;;;21.19;88.87;94094.41;5049532;28;20292;-61
2022/08/26 02:11:30;;;;;;;19.00;4.57;;;;;;;21.23;89.18;94103.34;5051054;28;20196;-61
2022/08/26 02:14:01;;;;;;;31.23;7.07;;;;;;;21.18;89.45;94091.03;5051026;28;20210;-61
2022/08/26 02:16:31;;;;;;;22.38;4.50;;;;;;;21.16;88.24;94111.13;5050885;28;20193;-61
2022/08/26 02:18:58;;;;;;;19.92;5.47;;;;;;;21.03;89.04;94097.50;5051286;28;20263;-66
2022/08/26 02:21:24;;;;;;;12.77;4.68;;;;;;;21.12;89.67;94080.72;5050912;28;20185;-60
2022/08/26 02:23:51;;;;;;;24.15;6.90;;;;;;;21.14;89.51;94086.47;5051019;28;20228;-60
2022/08/26 02:26:19;;;;;;;29.98;15.48;;;;;;;20.88;90.94;94061.53;5050778;28;20247;-60
2022/08/26 02:29:09;;;;;;;28.35;12.60;;;;;;;20.85;90.67;94062.75;5049354;28;20201;-61
2022/08/26 02:31:34;;;;;;;23.30;9.57;;;;;;;20.76;90.45;94068.38;5050942;28;20186;-61
2022/08/26 02:34:10;;;;;;;19.55;6.68;;;;;;;20.87;90.11;94080.63;5050634;28;20675;-61
2022/08/26 02:36:36;;;;;;;15.80;4.53;;;;;;;21.04;90.64;94081.78;5050063;28;20207;-60
2022/08/26 02:39:03;;;;;;;23.88;4.57;;;;;;;21.03;89.71;94084.56;5059365;22;20212;-61
2022/08/26 02:41:28;;;;;;;26.20;5.57;;;;;;;20.94;90.47;94071.06;5089369;28;20196;-61
2022/08/26 02:43:54;;;;;;;21.65;5.07;;;;;;;20.95;89.88;94077.78;5082854;28;20688;-64
2022/08/26 02:46:20;;;;;;;20.30;4.50;;;;;;;20.90;89.58;94091.34;5069724;28;20198;-63
2022/08/26 02:48:45;;;;;;;27.75;5.95;;;;;;;20.83;89.86;94085.41;5070540;28;20262;-61
2022/08/26 02:51:11;;;;;;;26.83;5.30;;;;;;;20.73;91.04;94068.75;5069711;28;20188;-61
2022/08/26 02:53:37;;;;;;;23.52;5.40;;;;;;;20.69;90.68;94072.75;5070420;28;20219;-62
2022/08/26 02:56:06;;;;;;;17.38;4.78;;;;;;;20.66;90.98;94066.22;5052454;28;20601;-62
2022/08/26 02:58:32;;;;;;;19.40;4.28;;;;;;;20.94;90.97;94071.06;5070387;28;20207;-63
2022/08/26 03:00:58;;;;;;;17.38;4.90;;;;;;;21.05;89.95;94093.69;5052653;28;20287;-61
2022/08/26 03:03:24;;;;;;;12.80;4.35;;;;;;;20.95;89.79;94093.31;5070425;28;20674;-61
2022/08/26 03:05:50;;;;;;;20.65;4.70;;;;;;;20.87;90.03;94096.13;5070356;28;20646;-61
2022/08/26 03:08:16;;;;;;;16.75;4.28;;;;;;;20.66;91.15;94073.19;5070167;28;20279;-62
2022/08/26 03:10:41;;;;;;;24.83;5.28;;;;;;;20.60;92.03;94066.25;5070760;28;20251;-61
2022/08/26 03:13:07;;;;;;;15.07;4.35;;;;;;;20.50;92.04;94061.50;5070306;28;20197;-63
2022/08/26 03:15:32;;;;;;;21.30;5.05;;;;;;;20.46;91.14;94083.56;5052411;28;20201;-62
2022/08/26 03:17:57;;;;;;;19.10;4.53;;;;;;;20.38;91.78;94070.09;5070316;28;20189;-63
2022/08/26 03:20:23;;;;;;;21.17;4.50;;;;;;;20.34;92.11;94071.50;5070221;28;20698;-62
2022/08/26 03:22:52;;;;;;;21.88;5.35;;;;;;;20.38;91.85;94078.63;5073365;28;20208;-63
2022/08/26 03:25:18;;;;;;;23.55;4.78;;;;;;;20.40;92.75;94065.53;5073444;28;20290;-64
2022/08/26 03:28:09;;;;;;;28.17;4.88;;;;;;;20.39;92.69;94069.88;5073794;28;20185;-61
2022/08/26 03:30:41;;;;;;;17.95;4.95;;;;;;;20.35;92.82;94066.13;5080264;22;20294;-62
2022/08/26 03:33:09;;;;;;;25.15;5.05;;;;;;;20.40;92.43;94073.28;5073474;28;20237;-61
2022/08/26 03:35:34;;;;;;;23.67;4.70;;;;;;;20.40;92.72;94071.47;5053647;28;20209;-60
2022/08/26 03:38:02;;;;;;;22.15;5.43;;;;;;;20.33;92.13;94070.72;5052263;28;20200;-62
2022/08/26 03:40:28;;;;;;;23.75;5.60;;;;;;;20.30;92.33;94076.25;5051918;28;20237;-62
2022/08/26 03:42:54;;;;;;;19.15;5.00;;;;;;;20.29;92.71;94079.06;5053492;28;20279;-61
2022/08/26 03:45:20;;;;;;;17.95;4.63;;;;;;;20.25;92.50;94073.50;5053808;28;20339;-63
2022/08/26 03:47:46;;;;;;;17.25;4.05;;;;;;;20.27;92.56;94060.38;5053233;28;20190;-64
2022/08/26 03:50:18;;;;;;;17.25;4.32;;;;;;;20.28;92.00;94077.47;5053340;28;20224;-64
2022/08/26 03:52:45;;;;;;;17.25;4.93;;;;;;;20.35;92.09;94080.81;5053340;28;20185;-65
2022/08/26 03:55:10;;;;;;;22.42;5.30;;;;;;;20.42;92.30;94073.88;5051869;28;20217;-62
2022/08/26 03:57:36;;;;;;;23.10;5.00;;;;;;;20.44;91.85;94090.72;5053173;28;20189;-60
2022/08/26 04:00:08;;;;;;;18.13;5.05;;;;;;;20.43;92.21;94083.97;5053184;28;20717;-60
2022/08/26 04:02:33;;;;;;;21.63;4.93;;;;;;;20.47;91.63;94089.53;5053272;28;20197;-63
2022/08/26 04:04:59;;;;;;;26.45;5.32;;;;;;;20.46;91.82;94093.13;5053235;28;20217;-61
2022/08/26 04:07:24;;;;;;;21.23;5.00;;;;;;;20.43;91.45;94088.34;5053093;28;20197;-62
2022/08/26 04:09:57;;;;;;;27.00;5.28;;;;;;;20.47;91.67;94084.34;5053320;28;20197;-63
2022/08/26 04:12:24;;;;;;;27.05;5.53;;;;;;;20.44;91.55;94089.94;5053021;28;20690;-64
2022/08/26 04:14:51;;;;;;;16.90;4.57;;;;;;;20.39;91.46;94084.59;5072210;22;20228;-63
2022/08/26 04:17:17;;;;;;;18.58;4.75;;;;;;;20.37;91.27;94089.97;5072957;28;20277;-63
2022/08/26 04:19:43;;;;;;;20.30;4.85;;;;;;;20.35;91.41;94093.72;5072916;28;20714;-63
2022/08/26 04:22:09;;;;;;;24.45;4.53;;;;;;;20.40;90.83;94104.25;5071466;28;20227;-62
2022/08/26 04:24:35;;;;;;;17.48;4.47;;;;;;;20.42;91.49;94086.78;5072961;28;20215;-64
2022/08/26 04:27:03;;;;;;;20.83;5.47;;;;;;;20.36;91.17;94095.34;5071633;28;20184;-62
2022/08/26 04:29:29;;;;;;;17.52;4.88;;;;;;;20.62;94.55;94057.31;5072533;28;20304;-62
2022/08/26 04:31:55;;;;;;;24.55;5.20;;;;;;;20.94;93.69;94071.06;5072628;28;20566;-62
2022/08/26 04:34:25;;;;;;;15.15;5.35;;;;;;;21.10;90.06;94129.25;5072665;28;20208;-61
2022/08/26 04:36:51;;;;;;;19.40;4.53;;;;;;;21.17;91.83;94097.19;5072706;28;20246;-64
2022/08/26 04:39:19;;;;;;;16.38;5.20;;;;;;;21.05;90.05;94116.94;5071331;28;20636;-63
2022/08/26 04:41:46;;;;;;;20.45;5.00;;;;;;;21.12;89.75;94128.06;5072409;28;20181;-62
2022/08/26 04:44:12;;;;;;;18.33;5.18;;;;;;;21.12;88.85;94147.94;5070925;28;20209;-63
2022/08/26 04:46:38;;;;;;;39.72;5.53;;;;;;;21.17;89.59;94132.63;5072292;28;20201;-64
2022/08/26 04:49:07;;;;;;;19.23;4.57;;;;;;;21.09;88.01;94156.13;5072382;28;20296;-62
2022/08/26 04:51:36;;;;;;;28.88;5.68;;;;;;;21.06;87.52;94162.50;5072264;28;20189;-64
2022/08/26 04:54:01;;;;;;;16.85;4.65;;;;;;;21.07;87.85;94158.88;5070925;28;20215;-63
2022/08/26 04:56:33;;;;;;;25.45;4.75;;;;;;;20.99;89.06;94130.66;5072188;28;20189;-63
2022/08/26 04:59:00;;;;;;;23.83;6.03;;;;;;;21.01;88.84;94144.16;5070807;28;20220;-62
2022/08/26 05:01:25;;;;;;;24.33;5.65;;;;;;;21.06;89.23;94130.66;5072238;28;20180;-63
2022/08/26 05:03:51;;;;;;;20.33;5.43;;;;;;;20.99;87.88;94153.16;5072235;28;20721;-65
2022/08/26 05:06:19;;;;;;;20.48;6.55;;;;;;;20.95;88.17;94146.81;5070821;28;20200;-62
2022/08/26 05:08:44;;;;;;;24.92;5.50;;;;;;;21.07;88.33;94147.78;5090925;22;20761;-62
2022/08/26 05:11:10;;;;;;;19.27;5.65;;;;;;;21.18;88.07;94147.91;5071902;28;20291;-63
2022/08/26 05:13:37;;;;;;;21.40;5.93;;;;;;;21.24;87.81;94157.44;5072065;28;20710;-63
2022/08/26 05:16:09;;;;;;;30.00;7.63;;;;;;;21.29;87.22;94173.09;5071735;28;20303;-61
2022/08/26 05:18:37;;;;;;;26.15;6.72;;;;;;;21.35;87.62;94172.28;5071658;28;20211;-63
2022/08/26 05:21:03;;;;;;;21.58;6.40;;;;;;;21.39;88.92;94136.47;5071999;28;20197;-63
2022/08/26 05:23:32;;;;;;;23.05;6.88;;;;;;;21.33;87.73;94168.34;5071898;28;20211;-63
2022/08/26 05:25:59;;;;;;;26.23;6.80;;;;;;;21.26;86.64;94186.47;5071636;28;20188;-62
2022/08/26 05:28:31;;;;;;;24.52;6.93;;;;;;;21.50;88.01;94165.03;5069412;28;20185;-63
2022/08/26 05:30:57;;;;;;;19.25;5.95;;;;;;;21.57;85.99;94202.00;5070415;28;20262;-63
2022/08/26 05:33:22;;;;;;;16.45;6.07;;;;;;;21.77;86.69;94189.72;5079891;22;20224;-62
2022/08/26 05:35:48;;;;;;;17.63;5.43;;;;;;;21.85;85.85;94195.69;5070629;28;20241;-63
2022/08/26 05:38:18;;;;;;;21.98;6.47;;;;;;;22.00;85.53;94209.16;5071480;28;20200;-61
2022/08/26 05:40:47;;;;;;;22.15;6.68;;;;;;;22.03;84.23;94226.84;5071610;28;20189;-61
2022/08/26 05:43:15;;;;;;;21.20;5.45;;;;;;;21.94;82.77;94264.34;5071460;28;20217;-61
2022/08/26 05:45:49;;;;;;;19.88;5.90;;;;;;;21.80;84.09;94227.34;5070918;28;20200;-62
2022/08/26 05:48:17;;;;;;;14.73;5.07;;;;;;;21.81;84.95;94215.22;5071466;28;20646;-63
2022/08/26 05:50:48;;;;;;;16.73;6.05;;;;;;;22.01;84.52;94227.06;5071482;28;20208;-63
2022/08/26 05:53:16;;;;;;;25.75;6.15;;;;;;;22.06;82.55;94255.69;5071566;28;20203;-64
2022/08/26 05:55:45;;;;;;;20.85;6.10;;;;;;;22.27;83.41;94239.81;5071369;28;20732;-63
2022/08/26 05:58:13;;;;;;;25.13;6.90;;;;;;;22.19;82.62;94244.44;5071207;28;20185;-63
2022/08/26 06:00:39;;;;;;;24.98;7.07;;;;;;;22.20;83.01;94246.81;5071094;28;20219;-64
2022/08/26 06:03:05;;;;;;;28.60;6.80;;;;;;;22.28;82.08;94261.34;5071360;28;20185;-64
2022/08/26 06:05:30;;;;;;;22.92;6.18;;;;;;;22.36;81.69;94272.22;5071257;28;20278;-64
2022/08/26 06:08:12;;;;;;;20.27;6.80;;;;;;;22.50;81.00;94285.88;5069741;28;20192;-64
2022/08/26 06:10:51;;;;;;;21.10;7.30;;;;;;;22.69;81.10;94290.13;5071200;28;20188;-63
2022/08/26 06:13:20;;;;;;;27.83;6.50;;;;;;;22.82;79.54;94315.94;5069631;28;20196;-63
2022/08/26 06:15:48;;;;;;;26.92;6.45;;;;;;;23.02;80.18;94295.81;5078286;22;20754;-63
2022/08/26 06:18:17;;;;;;;24.58;6.32;;;;;;;23.03;79.68;94304.34;5069695;28;20224;-66
2022/08/26 06:20:44;;;;;;;32.88;7.55;;;;;;;23.14;79.46;94309.66;5070798;28;20197;-60
2022/08/26 06:25:56;;;;;;;21.45;6.10;;;;;;;23.41;79.08;94312.81;5071213;28;20716;-64
2022/08/26 06:28:23;;;;;;;23.08;6.50;;;;;;;23.45;78.83;94321.75;5071157;28;20230;-63
2022/08/26 06:30:49;;;;;;;23.35;5.90;;;;;;;23.55;78.28;94336.81;5070850;28;20208;-62
2022/08/26 06:33:15;;;;;;;21.25;7.00;;;;;;;23.62;79.01;94327.91;5070883;28;20193;-62
2022/08/26 06:35:41;;;;;;;20.65;6.68;;;;;;;23.58;77.02;94354.53;5070839;28;20700;-63
2022/08/26 06:38:08;;;;;;;20.65;6.65;;;;;;;23.62;77.86;94340.91;5070729;28;20193;-61
2022/08/26 06:40:48;;;;;;;30.55;6.28;;;;;;;23.58;77.17;94346.72;5078205;22;20578;-62
2022/08/26 06:43:19;;;;;;;19.85;5.80;;;;;;;23.66;78.45;94338.66;5070674;28;20224;-63
2022/08/26 06:45:45;;;;;;;24.08;6.22;;;;;;;23.68;77.93;94344.44;5070483;28;20184;-62
2022/08/26 06:48:17;;;;;;;23.13;5.60;;;;;;;23.73;77.57;94347.19;5070685;28;20570;-62
2022/08/26 06:50:43;;;;;;;16.92;5.65;;;;;;;23.78;76.62;94362.88;5070678;28;20289;-64
2022/08/26 06:53:10;;;;;;;18.83;5.07;;;;;;;23.81;76.97;94365.84;5070436;28;20196;-62
2022/08/26 06:55:44;;;;;;;21.23;5.35;;;;;;;23.91;77.64;94342.75;5070347;28;20251;-64
2022/08/26 06:58:10;;;;;;;20.85;5.65;;;;;;;23.91;76.51;94360.94;5074258;28;20198;-63
2022/08/26 07:00:37;;;;;;;21.05;5.88;;;;;;;23.96;77.28;94352.47;5073961;28;20203;-62
2022/08/26 07:03:04;;;;;;;20.73;5.90;;;;;;;24.01;76.74;94356.03;5073078;28;20280;-63
2022/08/26 07:05:30;;;;;;;28.73;5.70;;;;;;;24.01;78.01;94335.25;5073522;28;20269;-63
2022/08/26 07:07:56;;;;;;;17.60;6.18;;;;;;;23.96;75.86;94363.66;5073694;28;20603;-64
2022/08/26 07:10:24;;;;;;;13.45;4.68;;;;;;;24.04;77.74;94334.03;5074137;28;20224;-62
2022/08/26 07:12:50;;;;;;;15.70;5.20;;;;;;;24.08;78.19;94328.16;5073741;28;20539;-64
2022/08/26 07:15:16;;;;;;;16.90;6.47;;;;;;;24.23;78.07;94330.38;5073732;28;20209;-62
2022/08/26 07:17:41;;;;;;;27.40;6.90;;;;;;;24.32;77.18;94351.66;5073839;28;20204;-63
2022/08/26 07:20:08;;;;;;;22.17;7.03;;;;;;;24.34;74.50;94404.19;5073889;28;20204;-62
2022/08/26 07:22:35;;;;;;;23.02;6.90;;;;;;;24.37;73.56;94424.53;5073665;28;20250;-63
2022/08/26 07:25:02;;;;;;;26.98;7.65;;;;;;;24.39;75.09;94386.94;5072236;28;20225;-63
2022/08/26 07:27:27;;;;;;;28.15;8.23;;;;;;;24.44;74.01;94420.06;5073526;28;20743;-61
2022/08/26 07:29:55;;;;;;;11.60;5.63;;;;;;;24.62;75.82;94374.00;5072533;28;20303;-61
2022/08/26 07:32:21;;;;;;;27.33;7.38;;;;;;;24.70;75.33;94373.69;5073463;28;20177;-61
2022/08/26 07:34:47;;;;;;;21.88;7.22;;;;;;;24.80;73.26;94423.38;5073134;28;20752;-63
2022/08/26 07:37:13;;;;;;;22.13;6.57;;;;;;;24.85;73.84;94410.50;5073275;28;20192;-62
2022/08/26 07:39:40;;;;;;;22.58;6.35;;;;;;;24.87;71.97;94447.47;5073622;28;20674;-60
2022/08/26 07:42:07;;;;;;;17.52;6.28;;;;;;;24.98;72.95;94423.31;5073281;28;20567;-63
2022/08/26 07:44:32;;;;;;;25.88;7.00;;;;;;;25.16;70.56;94471.88;5073619;28;20220;-62
2022/08/26 07:46:58;;;;;;;21.83;6.32;;;;;;;25.37;69.27;94491.38;5073054;28;20250;-63
2022/08/26 07:49:25;;;;;;;19.98;6.90;;;;;;;25.39;69.77;94465.91;5073249;28;20218;-63
2022/08/26 07:51:52;;;;;;;20.42;5.97;;;;;;;25.35;69.05;94485.59;5073042;28;20258;-63
2022/08/26 07:54:18;;;;;;;20.02;6.75;;;;;;;25.44;68.74;94489.47;5071528;28;20217;-62
2022/08/26 07:56:43;;;;;;;18.70;5.60;;;;;;;25.54;68.90;94484.50;5073088;28;20601;-63
2022/08/26 07:59:10;;;;;;;13.43;5.25;;;;;;;25.79;67.31;94511.13;5072802;28;20275;-62
2022/08/26 08:01:37;;;;;;;24.05;5.90;;;;;;;26.11;65.95;94530.66;5073104;28;20212;-64
2022/08/26 08:04:04;;;;;;;19.42;6.10;;;;;;;26.08;65.29;94536.28;5073229;28;20291;-63
2022/08/26 08:06:29;;;;;;;20.90;5.45;;;;;;;26.01;62.99;94571.28;5073016;28;20189;-62
2022/08/26 08:08:55;;;;;;;27.70;6.10;;;;;;;26.04;64.48;94537.75;5072900;28;20695;-62
2022/08/26 08:11:22;;;;;;;21.25;6.35;;;;;;;26.01;65.13;94511.34;5072949;28;20216;-63
2022/08/26 08:13:49;;;;;;;22.42;5.68;;;;;;;25.95;63.83;94533.09;5072916;28;20212;-62
2022/08/26 08:16:15;;;;;;;21.45;5.63;;;;;;;25.87;62.08;94572.53;5072926;28;20240;-62
2022/08/26 08:18:40;;;;;;;31.45;6.05;;;;;;;25.92;61.65;94570.81;5073349;28;20216;-63
2022/08/26 08:21:06;;;;;;;25.73;6.53;;;;;;;26.09;60.66;94584.81;5072761;28;20220;-61
2022/08/26 08:23:32;;;;;;;13.00;5.00;;;;;;;26.04;62.67;94529.94;5072823;28;20295;-62
2022/08/26 08:26:03;;;;;;;20.25;6.20;;;;;;;26.19;63.25;94519.88;5072553;28;20268;-61
2022/08/26 08:28:28;;;;;;;17.52;5.43;;;;;;;26.40;62.64;94527.06;5072772;28;20779;-63
2022/08/26 08:30:55;;;;;;;20.33;5.78;;;;;;;26.47;61.64;94551.22;5072522;28;20196;-64
2022/08/26 08:33:21;;;;;;;16.15;4.72;;;;;;;26.68;60.77;94567.28;5072634;28;20201;-63
2022/08/26 08:35:47;;;;;;;19.85;5.55;;;;;;;26.32;60.18;94569.16;5071147;28;20208;-61
2022/08/26 08:38:12;;;;;;;13.95;5.53;;;;;;;26.20;62.28;94512.84;5072251;28;20633;-62
2022/08/26 08:40:41;;;;;;;18.35;7.18;;;;;;;26.37;61.06;94547.59;5072643;28;20185;-62
2022/08/26 08:43:13;;;;;;;25.75;6.22;;;;;;;26.36;61.55;94535.59;5072675;28;20201;-63
2022/08/26 08:45:51;;;;;;;14.27;5.35;;;;;;;26.56;61.56;94518.53;5072482;28;20187;-64
2022/08/26 08:48:20;;;;;;;13.43;4.75;;;;;;;26.82;60.72;94532.91;5072488;28;20261;-63
2022/08/26 08:50:52;;;;;;;13.85;4.70;;;;;;;26.89;60.41;94537.97;5072375;28;20188;-62
2022/08/26 08:53:31;;;;;;;18.75;5.65;;;;;;;27.12;58.75;94582.25;5072386;28;20208;-63
2022/08/26 08:56:30;;;;;;;13.05;4.63;;;;;;;27.45;57.91;94592.03;5072227;28;20219;-62
2022/08/26 08:59:25;;;;;;;15.45;4.40;;;;;;;27.46;53.94;94536.94;5054412;28;20331;-63
2022/08/26 09:02:13;;;;;;;15.15;4.57;;;;;;;27.86;55.95;94487.13;5067244;28;20312;-63
2022/08/26 09:05:09;;;;;;;16.98;3.95;;;;;;;27.77;52.95;94539.03;5070589;28;20332;-63
2022/08/26 09:07:53;;;;;;;13.90;4.43;;;;;;;27.69;53.66;94512.50;5071594;28;20697;-62
2022/08/26 09:10:32;;;;;;;13.27;4.15;;;;;;;27.53;53.58;94500.22;5071974;28;20204;-62
2022/08/26 09:13:00;;;;;;;15.23;4.35;;;;;;;27.39;53.93;94473.63;5072058;28;20204;-62
2022/08/26 09:15:50;;;;;;;17.02;4.78;;;;;;;27.40;55.91;94431.59;5071751;28;20281;-63
2022/08/26 09:18:23;;;;;;;18.77;4.55;;;;;;;27.37;53.77;94488.75;5071498;28;20185;-62
2022/08/26 09:21:05;;;;;;;17.40;4.65;;;;;;;27.26;52.33;94507.84;5071652;28;20176;-61
2022/08/26 09:23:34;;;;;;;16.95;4.65;;;;;;;27.34;55.06;94445.59;5070332;28;20223;-60
2022/08/26 09:26:03;;;;;;;17.20;4.60;;;;;;;27.22;54.77;94452.69;5071704;28;20221;-62
2022/08/26 09:28:30;;;;;;;18.08;4.95;;;;;;;27.37;54.12;94455.56;5070287;28;20219;-64
2022/08/26 09:30:58;;;;;;;13.07;4.93;;;;;;;27.78;52.21;94492.75;5071585;28;20323;-62
2022/08/26 09:33:29;;;;;;;18.08;4.53;;;;;;;28.02;48.79;94556.91;5071703;28;20193;-62
2022/08/26 09:36:13;;;;;;;13.73;4.00;;;;;;;28.14;48.44;94537.50;5071409;28;20219;-63
2022/08/26 09:38:39;;;;;;;11.50;4.03;;;;;;;28.55;47.09;94582.50;5071515;28;20689;-63
2022/08/26 09:41:18;;;;;;;18.02;5.35;;;;;;;28.80;45.55;94588.09;5071453;28;20638;-64
2022/08/26 09:44:14;;;;;;;15.00;4.55;;;;;;;28.88;45.35;94559.66;5071692;28;20698;-62
2022/08/26 09:46:45;;;;;;;13.65;4.47;;;;;;;28.88;42.41;94606.00;5070987;28;20289;-64
2022/08/26 09:49:33;;;;;;;15.80;5.35;;;;;;;29.00;44.62;94543.81;5071229;28;20208;-64
2022/08/26 09:52:09;;;;;;;13.38;5.95;;;;;;;29.39;43.14;94573.31;5071547;28;20551;-62
2022/08/26 09:54:37;;;;;;;20.63;5.13;;;;;;;30.03;41.73;94603.00;5071756;28;20219;-63
2022/08/26 09:57:18;;;;;;;16.17;5.28;;;;;;;30.16;41.56;94584.97;5071315;28;20185;-64
2022/08/26 09:59:44;;;;;;;18.58;4.38;;;;;;;30.20;41.03;94586.06;5071543;28;20208;-63
2022/08/26 10:02:22;;;;;;;16.00;5.13;;;;;;;29.16;40.82;94573.59;5071203;28;20201;-64
2022/08/26 10:04:55;;;;;;;13.70;5.32;;;;;;;29.17;42.21;94531.44;5070957;28;20258;-64
2022/08/26 10:07:41;;;;;;;14.98;5.03;;;;;;;29.89;42.48;94523.97;5069697;28;20738;-63
2022/08/26 10:10:33;;;;;;;8.80;4.70;;;;;;;30.32;40.57;94565.69;5069762;28;20636;-64
2022/08/26 10:13:30;;;;;;;11.80;5.05;;;;;;;30.46;39.94;94564.19;5065473;28;20209;-63
2022/08/26 10:16:14;;;;;;;24.38;5.68;;;;;;;30.78;40.38;94564.09;5070971;28;20213;-63
2022/08/26 10:18:46;;;;;;;15.27;5.47;;;;;;;30.69;37.98;94610.25;5069648;28;20220;-63
2022/08/26 10:21:20;;;;;;;19.48;6.00;;;;;;;30.39;39.02;94563.66;5069640;28;20192;-63
2022/08/26 10:23:49;;;;;;;20.75;4.90;;;;;;;30.93;39.76;94548.41;5069689;28;20228;-63
2022/08/26 10:26:37;;;;;;;11.50;4.93;;;;;;;31.11;38.99;94565.56;5070830;28;20196;-64
2022/08/26 10:29:36;;;;;;;19.42;6.18;;;;;;;30.83;40.94;94516.03;5071172;28;20204;-63
2022/08/26 10:32:12;;;;;;;12.65;5.60;;;;;;;31.29;42.54;94473.88;5069360;28;20199;-64
2022/08/26 10:34:38;;;;;;;19.02;6.50;;;;;;;31.31;41.78;94486.78;5076353;22;20230;-64
2022/08/26 10:37:15;;;;;;;10.60;5.97;;;;;;;31.56;38.49;94580.66;5070717;28;20193;-64
2022/08/26 10:40:02;;;;;;;15.52;6.65;;;;;;;31.13;38.38;94566.88;5070469;28;20219;-64
2022/08/26 10:42:34;;;;;;;15.23;6.55;;;;;;;30.63;38.36;94564.03;5070560;28;20679;-63
2022/08/26 10:45:14;;;;;;;20.77;6.88;;;;;;;30.41;39.96;94524.03;5070907;28;20219;-64
2022/08/26 10:47:59;;;;;;;15.55;6.07;;;;;;;30.04;40.47;94495.19;5070448;28;20259;-63
2022/08/26 10:50:34;;;;;;;13.25;5.40;;;;;;;30.42;39.73;94513.25;5070397;28;20337;-63
2022/08/26 10:53:15;;;;;;;14.27;5.20;;;;;;;29.58;42.66;94440.88;5070766;28;20661;-64
2022/08/26 10:55:59;;;;;;;24.75;5.88;;;;;;;29.09;42.36;94457.75;5070291;28;20208;-64
2022/08/26 10:58:30;;;;;;;13.00;5.95;;;;;;;29.37;43.19;94441.78;5070379;28;20269;-63
2022/08/26 11:04:11;;;;;;;15.52;5.97;;;;;;;29.61;41.17;94475.22;5070916;28;20258;-63
2022/08/26 11:06:38;;;;;;;16.70;6.00;;;;;;;29.61;41.10;94480.47;5070582;28;20185;-63
2022/08/26 11:09:07;;;;;;;14.40;7.13;;;;;;;29.98;38.35;94546.03;5070691;28;20220;-63
2022/08/26 11:11:38;;;;;;;15.57;5.65;;;;;;;30.31;38.73;94529.22;5070327;28;20185;-64
2022/08/26 11:14:09;;;;;;;9.20;5.18;;;;;;;30.64;38.29;94534.13;5070683;28;20224;-63
2022/08/26 11:16:43;;;;;;;16.15;6.00;;;;;;;30.76;38.19;94539.16;5068845;28;20258;-64
2022/08/26 11:19:33;;;;;;;16.45;6.30;;;;;;;30.69;38.03;94531.50;5070467;28;20378;-63
2022/08/26 11:22:08;;;;;;;15.88;5.60;;;;;;;30.98;38.16;94535.31;5068984;28;20193;-62
2022/08/26 11:24:42;;;;;;;13.23;6.38;;;;;;;31.77;37.72;94533.09;5070062;28;20215;-64
2022/08/26 11:27:30;;;;;;;20.13;7.03;;;;;;;32.30;37.59;94542.25;5068823;28;20192;-63
2022/08/26 11:30:02;;;;;;;11.68;6.30;;;;;;;32.55;35.50;94592.22;5070406;28;20286;-62
2022/08/26 11:32:33;;;;;;;20.92;7.07;;;;;;;32.75;37.10;94538.69;5070078;28;20185;-63
2022/08/26 11:35:03;;;;;;;16.17;7.00;;;;;;;32.99;35.72;94571.28;5070125;28;20631;-64
2022/08/26 11:37:34;;;;;;;10.75;5.95;;;;;;;33.25;35.38;94577.25;5068810;28;20205;-63
2022/08/26 11:40:03;;;;;;;17.33;6.05;;;;;;;33.38;34.20;94585.34;5070087;28;20223;-62
2022/08/26 11:42:59;;;;;;;14.85;6.30;;;;;;;32.80;31.99;94634.31;5070997;28;20197;-62
2022/08/26 11:45:43;;;;;;;14.85;6.50;;;;;;;32.82;34.77;94541.84;5073290;28;20240;-63